createdAt,value
2023-03-28T04:00:57.217Z,93.66
2023-03-28T04:05:17.603Z,94.35
2023-03-28T04:09:44.738Z,94.14
2023-03-28T04:13:56.409Z,94.80
2023-03-28T04:18:09.797Z,94.11
2023-03-28T04:22:29.792Z,95.10
2023-03-28T04:26:43.262Z,94.99
2023-03-28T04:31:00.516Z,94.16
2023-03-28T04:35:30.394Z,93.97
2023-03-28T04:39:44.530Z,94.31
2023-03-28T04:44:14.618Z,94.47
2023-03-28T04:48:32.576Z,94.94
2023-03-28T04:52:44.101Z,94.23
2023-03-28T04:56:55.988Z,94.28
2023-03-28T05:01:22.499Z,93.86
2023-03-28T05:05:53.127Z,93.59
2023-03-28T05:10:06.199Z,92.14
2023-03-28T05:14:21.724Z,93.77
2023-03-28T05:18:38.200Z,93.52
2023-03-28T05:22:51.253Z,93.78
2023-03-28T05:27:02.732Z,93.51
2023-03-28T05:31:15.620Z,93.03
2023-03-28T05:35:27.780Z,93.66
2023-03-28T05:39:40.358Z,93.64
2023-03-28T05:43:52.350Z,93.54
2023-03-28T05:48:18.960Z,92.73
2023-03-28T05:52:30.542Z,98.19
2023-03-28T05:56:42.362Z,96.18
2023-03-28T06:00:56.477Z,95.08
2023-03-28T06:05:11.182Z,94.98
2023-03-28T06:09:23.247Z,95.21
2023-03-28T06:13:41.565Z,95.04
2023-03-28T06:17:55.534Z,94.41
2023-03-28T06:22:07.178Z,94.45
2023-03-28T06:26:19.650Z,94.08
2023-03-28T06:30:31.194Z,94.77
2023-03-28T06:34:43.906Z,94.49
2023-03-28T06:38:55.472Z,94.31
2023-03-28T06:43:09.293Z,94.54
2023-03-28T06:47:31.609Z,94.98
2023-03-28T06:51:43.111Z,95.23
2023-03-28T06:55:55.927Z,94.85
2023-03-28T07:00:08.726Z,94.34
2023-03-28T07:04:49.248Z,76.24
2023-03-28T07:09:01.629Z,64.50
2023-03-28T07:13:31.968Z,63.92
2023-03-28T07:17:48.526Z,66.04
2023-03-28T07:22:00.271Z,68.70
2023-03-28T07:26:13.265Z,71.64
2023-03-28T07:30:25.552Z,76.67
2023-03-28T07:34:37.166Z,79.96
2023-03-28T07:38:49.626Z,80.01
2023-03-28T07:43:02.612Z,80.95
2023-03-28T07:47:14.204Z,82.79
2023-03-28T07:51:26.259Z,79.99
2023-03-28T07:59:53.214Z,82.72
2023-03-28T08:04:05.115Z,82.46
2023-03-28T08:08:35.615Z,81.36
2023-03-28T08:12:56.554Z,82.50
2023-03-28T08:17:09.093Z,82.41
2023-03-28T08:21:22.023Z,82.20
2023-03-28T08:25:33.564Z,80.92
2023-03-28T08:29:46.438Z,78.97
2023-03-28T08:33:58.422Z,78.18
2023-03-28T08:38:16.056Z,75.02
2023-03-28T08:43:05.731Z,72.20
2023-03-28T08:47:25.482Z,71.70
2023-03-28T08:51:44.036Z,68.32
2023-03-28T08:55:57.579Z,67.91
2023-03-28T09:00:31.163Z,67.03
2023-03-28T09:04:42.687Z,67.96
2023-03-28T09:09:25.056Z,67.89
2023-03-28T09:13:59.761Z,67.45
2023-03-28T09:18:37.184Z,66.59
2023-03-28T09:23:20.169Z,65.19
2023-03-28T09:27:50.507Z,65.13
2023-03-28T09:32:13.044Z,65.55
2023-03-28T09:36:45.505Z,63.26
2023-03-28T09:41:07.211Z,60.86
2023-03-28T09:45:49.417Z,59.52
2023-03-28T09:50:32.154Z,63.95
2023-03-28T09:54:45.275Z,56.92
2023-03-28T09:59:05.243Z,56.84
2023-03-28T10:03:32.798Z,53.52
2023-03-28T10:07:47.536Z,54.69
2023-03-28T10:12:10.464Z,54.58
2023-03-28T10:16:28.844Z,53.56
2023-03-28T10:20:43.484Z,54.92
2023-03-28T10:24:55.546Z,53.18
2023-03-28T10:29:08.861Z,52.53
2023-03-28T10:33:30.497Z,50.84
2023-03-28T10:38:04.979Z,49.81
2023-03-28T10:42:45.156Z,50.34
2023-03-28T10:47:20.082Z,50.05
2023-03-28T10:51:43.316Z,47.43
2023-03-28T10:55:59.996Z,47.48
2023-03-28T11:00:26.111Z,47.50
2023-03-28T11:05:22.584Z,47.36
2023-03-28T11:10:08.526Z,47.29
2023-03-28T11:14:56.529Z,47.35
2023-03-28T11:19:46.184Z,48.70
2023-03-28T11:24:22.845Z,48.50
2023-03-28T11:29:08.689Z,48.31
2023-03-28T11:33:32.051Z,47.64
2023-03-28T11:38:05.240Z,48.43
2023-03-28T11:42:36.601Z,47.96
2023-03-28T11:47:12.234Z,48.00
2023-03-28T11:51:32.395Z,47.74
2023-03-28T11:55:52.830Z,48.31
2023-03-28T12:00:42.532Z,49.88
2023-03-28T12:05:08.441Z,49.39
2023-03-28T12:09:33.400Z,48.31
2023-03-28T12:14:01.269Z,47.84
2023-03-28T12:18:38.839Z,49.42
2023-03-28T12:23:05.039Z,48.79
2023-03-28T12:28:15.655Z,48.18
2023-03-28T12:32:50.991Z,47.75
2023-03-28T12:37:18.266Z,46.40
2023-03-28T12:41:36.285Z,47.67
2023-03-28T12:45:55.125Z,48.04
2023-03-28T12:50:18.864Z,46.94
2023-03-28T12:54:52.386Z,46.65
2023-03-28T12:59:34.414Z,47.35
2023-03-28T13:03:58.668Z,46.05
2023-03-28T13:08:55.507Z,43.38
2023-03-28T13:13:44.182Z,42.80
2023-03-28T13:18:17.888Z,43.28
2023-03-28T13:23:07.171Z,44.67
2023-03-28T13:27:32.915Z,44.96
2023-03-28T13:31:44.537Z,44.68
2023-03-28T13:35:59.131Z,44.00
2023-03-28T13:40:50.701Z,43.74
2023-03-28T13:45:19.869Z,42.37
2023-03-28T13:49:43.591Z,43.34
2023-03-28T13:53:55.281Z,44.87
2023-03-28T13:58:06.842Z,44.07
2023-03-28T14:02:32.144Z,45.65
2023-03-28T14:06:43.944Z,47.61
2023-03-28T14:10:56.833Z,46.59
2023-03-28T14:15:09.919Z,46.55
2023-03-28T14:19:27.731Z,46.29
2023-03-28T14:23:42.824Z,47.01
2023-03-28T14:27:56.954Z,45.61
2023-03-28T14:32:24.084Z,45.18
2023-03-28T14:36:58.920Z,47.04
2023-03-28T14:41:19.250Z,47.17
2023-03-28T14:45:36.469Z,48.08
2023-03-28T14:49:48.099Z,47.97
2023-03-28T14:54:01.818Z,48.27
2023-03-28T14:58:13.985Z,46.30
2023-03-28T15:02:34.891Z,45.56
2023-03-28T15:06:57.240Z,47.03
2023-03-28T15:11:27.642Z,46.12
2023-03-28T15:15:44.181Z,47.53
2023-03-28T15:19:58.441Z,47.96
2023-03-28T15:24:15.004Z,46.70
2023-03-28T15:28:28.269Z,46.95
2023-03-28T15:32:39.967Z,49.21
2023-03-28T15:36:58.559Z,50.66
2023-03-28T15:41:22.054Z,50.38
2023-03-28T15:45:43.333Z,50.76
2023-03-28T15:50:06.311Z,51.13
2023-03-28T15:54:30.221Z,51.03
2023-03-28T15:58:46.240Z,51.42
2023-03-28T16:03:20.537Z,51.92
2023-03-28T16:07:46.698Z,50.70
2023-03-28T16:12:03.570Z,52.71
2023-03-28T16:16:29.437Z,52.48
2023-03-28T16:21:10.609Z,52.71
2023-03-28T16:25:22.203Z,52.67
2023-03-28T16:29:33.952Z,52.57
2023-03-28T16:33:45.612Z,53.27
2023-03-28T16:37:57.488Z,53.07
2023-03-28T16:42:09.220Z,53.16
2023-03-28T16:46:20.996Z,53.32
2023-03-28T16:50:32.630Z,54.30
2023-03-28T16:54:44.282Z,54.71
2023-03-28T16:58:56.130Z,54.44
2023-03-28T17:03:07.951Z,54.61
2023-03-28T17:07:19.699Z,55.38
2023-03-28T17:11:31.570Z,55.39
2023-03-28T17:15:43.419Z,54.42
2023-03-28T17:19:54.953Z,55.55
2023-03-28T17:24:11.207Z,55.81
2023-03-28T17:28:24.395Z,54.86
2023-03-28T17:32:36.176Z,54.50
2023-03-28T17:36:48.885Z,54.53
2023-03-28T17:41:00.989Z,53.51
2023-03-28T17:45:13.178Z,54.25
2023-03-28T17:49:24.889Z,54.11
2023-03-28T17:53:38.460Z,53.89
2023-03-28T17:57:50.038Z,53.94
2023-03-28T18:02:02.937Z,52.72
2023-03-28T18:06:15.210Z,54.01
2023-03-28T18:10:26.953Z,54.23
2023-03-28T18:14:38.700Z,55.10
2023-03-28T18:18:50.198Z,56.82
2023-03-28T18:23:01.751Z,57.31
2023-03-28T18:27:13.348Z,56.05
2023-03-28T18:31:28.213Z,55.31
2023-03-28T18:35:40.388Z,55.76
2023-03-28T18:39:51.999Z,54.53
2023-03-28T18:44:04.888Z,54.45
2023-03-28T18:48:18.415Z,55.30
2023-03-28T18:52:30.351Z,54.52
2023-03-28T18:56:42.037Z,53.17
2023-03-28T19:00:59.050Z,54.59
2023-03-28T19:05:11.035Z,54.15
2023-03-28T19:09:22.561Z,54.14
2023-03-28T19:13:36.210Z,54.61
2023-03-28T19:18:33.556Z,55.13
2023-03-28T19:22:45.578Z,55.00
2023-03-28T19:26:59.322Z,55.92
2023-03-28T19:31:13.535Z,54.28
2023-03-28T19:35:28.296Z,55.91
2023-03-28T19:39:40.074Z,57.33
2023-03-28T19:43:51.676Z,56.80
2023-03-28T19:48:03.421Z,57.96
2023-03-28T19:52:15.009Z,57.15
2023-03-28T19:56:26.998Z,56.41
2023-03-28T20:00:38.523Z,55.68
2023-03-28T20:04:50.108Z,57.21
2023-03-28T20:09:01.676Z,57.78
2023-03-28T20:13:13.657Z,57.06
2023-03-28T20:17:25.160Z,55.95
2023-03-28T20:21:36.757Z,57.06
2023-03-28T20:25:48.595Z,56.40
2023-03-28T20:39:41.878Z,61.25
2023-03-28T20:43:54.961Z,64.93
2023-03-28T20:48:07.560Z,62.07
2023-03-28T20:52:19.197Z,63.55
2023-03-28T20:56:31.938Z,65.35
2023-03-28T21:00:47.716Z,67.76
2023-03-28T21:05:00.246Z,67.45
2023-03-28T21:09:18.261Z,68.41
2023-03-28T21:13:30.479Z,69.25
2023-03-28T21:17:42.615Z,75.16
2023-03-28T21:21:54.522Z,79.33
